sensor_id;sensor_type;location;lat;lon;timestamp;P1;durP1;ratioP1;P2;durP2;ratioP2
45540;SDS011;31265;49.680;8.608;2022-09-14T00:01:28;5.38;;;2.17;;
45540;SDS011;31265;49.680;8.608;2022-09-14T00:03:58;4.20;;;2.30;;
45540;SDS011;31265;49.680;8.608;2022-09-14T00:06:28;3.15;;;1.65;;
45540;SDS011;31265;49.680;8.608;2022-09-14T00:08:57;4.80;;;2.58;;
45540;SDS011;31265;49.680;8.608;2022-09-14T00:11:27;7.05;;;3.22;;
45540;SDS011;31265;49.680;8.608;2022-09-14T00:13:57;4.65;;;2.65;;
45540;SDS011;31265;49.680;8.608;2022-09-14T00:16:28;4.80;;;2.90;;
45540;SDS011;31265;49.680;8.608;2022-09-14T00:18:58;6.70;;;3.58;;
45540;SDS011;31265;49.680;8.608;2022-09-14T00:21:31;6.20;;;3.05;;
45540;SDS011;31265;49.680;8.608;2022-09-14T00:24:00;5.63;;;3.33;;
45540;SDS011;31265;49.680;8.608;2022-09-14T00:26:28;9.23;;;3.05;;
45540;SDS011;31265;49.680;8.608;2022-09-14T00:28:57;3.70;;;2.22;;
45540;SDS011;31265;49.680;8.608;2022-09-14T00:31:31;9.57;;;3.78;;
45540;SDS011;31265;49.680;8.608;2022-09-14T00:34:00;5.78;;;3.15;;
45540;SDS011;31265;49.680;8.608;2022-09-14T00:36:29;5.47;;;3.07;;
45540;SDS011;31265;49.680;8.608;2022-09-14T00:41:28;8.93;;;3.28;;
45540;SDS011;31265;49.680;8.608;2022-09-14T00:43:59;6.90;;;2.80;;
45540;SDS011;31265;49.680;8.608;2022-09-14T00:46:29;4.35;;;2.90;;
45540;SDS011;31265;49.680;8.608;2022-09-14T00:48:59;5.07;;;2.75;;
45540;SDS011;31265;49.680;8.608;2022-09-14T00:51:30;4.13;;;1.75;;
45540;SDS011;31265;49.680;8.608;2022-09-14T00:54:00;2.88;;;1.58;;
45540;SDS011;31265;49.680;8.608;2022-09-14T00:56:29;2.75;;;1.02;;
45540;SDS011;31265;49.680;8.608;2022-09-14T00:58:58;7.22;;;2.00;;
45540;SDS011;31265;49.680;8.608;2022-09-14T01:01:28;2.60;;;0.93;;
45540;SDS011;31265;49.680;8.608;2022-09-14T01:03:58;2.28;;;0.77;;
45540;SDS011;31265;49.680;8.608;2022-09-14T01:06:28;2.08;;;0.52;;
45540;SDS011;31265;49.680;8.608;2022-09-14T01:09:14;1.08;;;0.30;;
45540;SDS011;31265;49.680;8.608;2022-09-14T01:11:53;1.38;;;0.65;;
45540;SDS011;31265;49.680;8.608;2022-09-14T01:14:41;1.42;;;0.77;;
45540;SDS011;31265;49.680;8.608;2022-09-14T01:17:17;2.80;;;1.05;;
45540;SDS011;31265;49.680;8.608;2022-09-14T01:20:02;4.63;;;0.80;;
45540;SDS011;31265;49.680;8.608;2022-09-14T01:22:42;5.22;;;0.73;;
45540;SDS011;31265;49.680;8.608;2022-09-14T01:25:20;0.63;;;0.40;;
45540;SDS011;31265;49.680;8.608;2022-09-14T01:28:11;1.60;;;0.95;;
45540;SDS011;31265;49.680;8.608;2022-09-14T01:30:46;7.75;;;0.85;;
45540;SDS011;31265;49.680;8.608;2022-09-14T01:33:17;4.07;;;1.20;;
45540;SDS011;31265;49.680;8.608;2022-09-14T01:35:50;2.45;;;1.42;;
45540;SDS011;31265;49.680;8.608;2022-09-14T01:38:22;5.55;;;2.08;;
45540;SDS011;31265;49.680;8.608;2022-09-14T01:40:54;7.03;;;2.15;;
45540;SDS011;31265;49.680;8.608;2022-09-14T01:43:26;3.38;;;2.15;;
45540;SDS011;31265;49.680;8.608;2022-09-14T01:46:03;9.73;;;3.30;;
45540;SDS011;31265;49.680;8.608;2022-09-14T01:48:36;7.70;;;4.38;;
45540;SDS011;31265;49.680;8.608;2022-09-14T01:51:08;5.47;;;3.00;;
45540;SDS011;31265;49.680;8.608;2022-09-14T01:53:39;5.50;;;3.25;;
45540;SDS011;31265;49.680;8.608;2022-09-14T01:56:14;6.75;;;3.47;;
45540;SDS011;31265;49.680;8.608;2022-09-14T01:58:47;8.35;;;3.78;;
45540;SDS011;31265;49.680;8.608;2022-09-14T02:01:21;7.25;;;3.55;;
45540;SDS011;31265;49.680;8.608;2022-09-14T02:03:58;7.47;;;4.18;;
45540;SDS011;31265;49.680;8.608;2022-09-14T02:06:30;6.35;;;3.67;;
45540;SDS011;31265;49.680;8.608;2022-09-14T02:09:02;6.25;;;4.15;;
45540;SDS011;31265;49.680;8.608;2022-09-14T02:11:31;6.32;;;3.20;;
45540;SDS011;31265;49.680;8.608;2022-09-14T02:14:01;7.63;;;3.72;;
45540;SDS011;31265;49.680;8.608;2022-09-14T02:16:29;7.57;;;3.80;;
45540;SDS011;31265;49.680;8.608;2022-09-14T02:18:57;8.10;;;4.22;;
45540;SDS011;31265;49.680;8.608;2022-09-14T02:21:28;5.75;;;3.40;;
45540;SDS011;31265;49.680;8.608;2022-09-14T02:23:58;5.68;;;3.35;;
45540;SDS011;31265;49.680;8.608;2022-09-14T02:26:26;6.88;;;4.03;;
45540;SDS011;31265;49.680;8.608;2022-09-14T02:28:55;6.03;;;3.25;;
45540;SDS011;31265;49.680;8.608;2022-09-14T02:31:27;7.65;;;4.43;;
45540;SDS011;31265;49.680;8.608;2022-09-14T02:34:05;7.18;;;3.80;;
45540;SDS011;31265;49.680;8.608;2022-09-14T02:36:41;7.35;;;3.83;;
45540;SDS011;31265;49.680;8.608;2022-09-14T02:39:21;8.20;;;3.92;;
45540;SDS011;31265;49.680;8.608;2022-09-14T02:41:55;7.95;;;3.92;;
45540;SDS011;31265;49.680;8.608;2022-09-14T02:44:30;6.80;;;4.38;;
45540;SDS011;31265;49.680;8.608;2022-09-14T02:47:09;7.70;;;4.28;;
45540;SDS011;31265;49.680;8.608;2022-09-14T02:49:43;5.93;;;3.72;;
45540;SDS011;31265;49.680;8.608;2022-09-14T02:52:18;5.10;;;3.00;;
45540;SDS011;31265;49.680;8.608;2022-09-14T02:54:55;5.82;;;3.58;;
45540;SDS011;31265;49.680;8.608;2022-09-14T02:57:28;8.40;;;3.33;;
45540;SDS011;31265;49.680;8.608;2022-09-14T02:59:56;9.63;;;3.05;;
45540;SDS011;31265;49.680;8.608;2022-09-14T03:02:26;6.00;;;2.60;;
45540;SDS011;31265;49.680;8.608;2022-09-14T03:04:54;5.07;;;2.72;;
45540;SDS011;31265;49.680;8.608;2022-09-14T03:07:22;7.30;;;2.92;;
45540;SDS011;31265;49.680;8.608;2022-09-14T03:09:50;3.65;;;2.13;;
45540;SDS011;31265;49.680;8.608;2022-09-14T03:12:18;4.28;;;2.50;;
45540;SDS011;31265;49.680;8.608;2022-09-14T03:14:46;6.13;;;3.00;;
45540;SDS011;31265;49.680;8.608;2022-09-14T03:17:14;3.85;;;2.10;;
45540;SDS011;31265;49.680;8.608;2022-09-14T03:19:43;6.45;;;1.95;;
45540;SDS011;31265;49.680;8.608;2022-09-14T03:22:11;4.43;;;2.13;;
45540;SDS011;31265;49.680;8.608;2022-09-14T03:24:39;4.10;;;2.13;;
45540;SDS011;31265;49.680;8.608;2022-09-14T03:27:07;3.97;;;1.90;;
45540;SDS011;31265;49.680;8.608;2022-09-14T03:29:35;3.90;;;1.60;;
45540;SDS011;31265;49.680;8.608;2022-09-14T03:32:03;6.82;;;1.95;;
45540;SDS011;31265;49.680;8.608;2022-09-14T03:34:31;4.22;;;2.13;;
45540;SDS011;31265;49.680;8.608;2022-09-14T03:37:00;3.90;;;2.22;;
45540;SDS011;31265;49.680;8.608;2022-09-14T03:39:28;3.80;;;2.50;;
45540;SDS011;31265;49.680;8.608;2022-09-14T03:41:56;4.05;;;2.20;;
45540;SDS011;31265;49.680;8.608;2022-09-14T03:44:24;7.07;;;3.35;;
45540;SDS011;31265;49.680;8.608;2022-09-14T03:46:52;9.20;;;3.03;;
45540;SDS011;31265;49.680;8.608;2022-09-14T03:49:21;5.93;;;3.33;;
45540;SDS011;31265;49.680;8.608;2022-09-14T03:51:49;5.75;;;2.58;;
45540;SDS011;31265;49.680;8.608;2022-09-14T03:54:23;6.97;;;3.20;;
45540;SDS011;31265;49.680;8.608;2022-09-14T03:56:51;6.38;;;3.33;;
45540;SDS011;31265;49.680;8.608;2022-09-14T03:59:20;4.70;;;2.67;;
45540;SDS011;31265;49.680;8.608;2022-09-14T04:01:48;5.22;;;2.70;;
45540;SDS011;31265;49.680;8.608;2022-09-14T04:04:16;7.10;;;3.95;;
45540;SDS011;31265;49.680;8.608;2022-09-14T04:06:44;5.43;;;3.10;;
45540;SDS011;31265;49.680;8.608;2022-09-14T04:09:13;5.82;;;2.92;;
45540;SDS011;31265;49.680;8.608;2022-09-14T04:11:42;5.15;;;2.83;;
45540;SDS011;31265;49.680;8.608;2022-09-14T04:14:10;3.97;;;1.92;;
45540;SDS011;31265;49.680;8.608;2022-09-14T04:16:38;6.13;;;2.38;;
45540;SDS011;31265;49.680;8.608;2022-09-14T04:19:07;9.98;;;2.50;;
45540;SDS011;31265;49.680;8.608;2022-09-14T04:21:35;5.60;;;2.70;;
45540;SDS011;31265;49.680;8.608;2022-09-14T04:24:04;5.65;;;3.20;;
45540;SDS011;31265;49.680;8.608;2022-09-14T04:26:43;3.55;;;2.13;;
45540;SDS011;31265;49.680;8.608;2022-09-14T04:29:11;8.10;;;3.22;;
45540;SDS011;31265;49.680;8.608;2022-09-14T04:31:40;8.10;;;3.67;;
45540;SDS011;31265;49.680;8.608;2022-09-14T04:34:09;8.18;;;4.50;;
45540;SDS011;31265;49.680;8.608;2022-09-14T04:36:39;7.00;;;3.75;;
45540;SDS011;31265;49.680;8.608;2022-09-14T04:39:08;5.63;;;2.88;;
45540;SDS011;31265;49.680;8.608;2022-09-14T04:41:38;7.13;;;3.35;;
45540;SDS011;31265;49.680;8.608;2022-09-14T04:44:07;5.65;;;3.92;;
45540;SDS011;31265;49.680;8.608;2022-09-14T04:46:35;5.60;;;3.00;;
45540;SDS011;31265;49.680;8.608;2022-09-14T04:49:12;6.45;;;3.90;;
45540;SDS011;31265;49.680;8.608;2022-09-14T04:51:40;5.97;;;3.63;;
45540;SDS011;31265;49.680;8.608;2022-09-14T04:54:11;8.07;;;3.38;;
45540;SDS011;31265;49.680;8.608;2022-09-14T04:56:40;7.40;;;3.45;;
45540;SDS011;31265;49.680;8.608;2022-09-14T04:59:10;6.25;;;3.42;;
45540;SDS011;31265;49.680;8.608;2022-09-14T05:01:39;8.82;;;3.72;;
45540;SDS011;31265;49.680;8.608;2022-09-14T05:06:38;7.82;;;3.72;;
45540;SDS011;31265;49.680;8.608;2022-09-14T05:09:08;9.00;;;2.80;;
45540;SDS011;31265;49.680;8.608;2022-09-14T05:11:38;6.35;;;3.38;;
45540;SDS011;31265;49.680;8.608;2022-09-14T05:14:08;7.03;;;3.38;;
45540;SDS011;31265;49.680;8.608;2022-09-14T05:16:38;5.90;;;3.13;;
45540;SDS011;31265;49.680;8.608;2022-09-14T05:19:09;5.65;;;2.80;;
45540;SDS011;31265;49.680;8.608;2022-09-14T05:21:39;5.05;;;3.08;;
45540;SDS011;31265;49.680;8.608;2022-09-14T05:24:09;4.80;;;3.10;;
45540;SDS011;31265;49.680;8.608;2022-09-14T05:26:40;6.03;;;2.65;;
45540;SDS011;31265;49.680;8.608;2022-09-14T05:29:12;5.55;;;3.42;;
45540;SDS011;31265;49.680;8.608;2022-09-14T05:31:41;5.20;;;3.05;;
45540;SDS011;31265;49.680;8.608;2022-09-14T05:34:09;6.45;;;3.28;;
45540;SDS011;31265;49.680;8.608;2022-09-14T05:36:38;4.70;;;2.70;;
45540;SDS011;31265;49.680;8.608;2022-09-14T05:39:06;4.65;;;2.97;;
45540;SDS011;31265;49.680;8.608;2022-09-14T05:41:35;8.43;;;3.10;;
45540;SDS011;31265;49.680;8.608;2022-09-14T05:44:04;5.68;;;3.20;;
45540;SDS011;31265;49.680;8.608;2022-09-14T05:46:33;5.80;;;3.03;;
45540;SDS011;31265;49.680;8.608;2022-09-14T05:51:29;4.47;;;2.58;;
45540;SDS011;31265;49.680;8.608;2022-09-14T05:53:57;5.15;;;2.60;;
45540;SDS011;31265;49.680;8.608;2022-09-14T05:56:27;4.60;;;2.67;;
45540;SDS011;31265;49.680;8.608;2022-09-14T05:58:57;3.80;;;2.20;;
45540;SDS011;31265;49.680;8.608;2022-09-14T06:01:26;5.43;;;3.22;;
45540;SDS011;31265;49.680;8.608;2022-09-14T06:03:57;7.10;;;2.67;;
45540;SDS011;31265;49.680;8.608;2022-09-14T06:06:28;3.70;;;2.20;;
45540;SDS011;31265;49.680;8.608;2022-09-14T06:08:57;4.22;;;2.38;;
45540;SDS011;31265;49.680;8.608;2022-09-14T06:11:26;8.38;;;2.70;;
45540;SDS011;31265;49.680;8.608;2022-09-14T06:13:55;6.45;;;1.88;;
45540;SDS011;31265;49.680;8.608;2022-09-14T06:16:24;5.43;;;2.73;;
45540;SDS011;31265;49.680;8.608;2022-09-14T06:18:54;5.15;;;2.42;;
45540;SDS011;31265;49.680;8.608;2022-09-14T06:21:26;5.03;;;2.40;;
45540;SDS011;31265;49.680;8.608;2022-09-14T06:23:55;3.78;;;2.10;;
45540;SDS011;31265;49.680;8.608;2022-09-14T06:26:24;5.63;;;2.42;;
45540;SDS011;31265;49.680;8.608;2022-09-14T06:28:53;4.03;;;2.47;;
45540;SDS011;31265;49.680;8.608;2022-09-14T06:31:21;3.42;;;2.25;;
45540;SDS011;31265;49.680;8.608;2022-09-14T06:36:19;3.80;;;2.20;;
45540;SDS011;31265;49.680;8.608;2022-09-14T06:38:49;4.05;;;1.85;;
45540;SDS011;31265;49.680;8.608;2022-09-14T06:43:47;3.15;;;1.90;;
45540;SDS011;31265;49.680;8.608;2022-09-14T06:46:17;3.92;;;1.95;;
45540;SDS011;31265;49.680;8.608;2022-09-14T06:48:46;3.75;;;2.08;;
45540;SDS011;31265;49.680;8.608;2022-09-14T06:51:17;5.70;;;2.38;;
45540;SDS011;31265;49.680;8.608;2022-09-14T06:53:47;5.63;;;2.85;;
45540;SDS011;31265;49.680;8.608;2022-09-14T06:56:17;3.45;;;1.73;;
45540;SDS011;31265;49.680;8.608;2022-09-14T06:58:45;3.75;;;1.73;;
45540;SDS011;31265;49.680;8.608;2022-09-14T07:01:14;4.70;;;2.42;;
45540;SDS011;31265;49.680;8.608;2022-09-14T07:03:43;5.25;;;1.95;;
45540;SDS011;31265;49.680;8.608;2022-09-14T07:06:13;4.40;;;2.80;;
45540;SDS011;31265;49.680;8.608;2022-09-14T07:08:44;3.63;;;2.08;;
45540;SDS011;31265;49.680;8.608;2022-09-14T07:11:13;4.07;;;2.45;;
45540;SDS011;31265;49.680;8.608;2022-09-14T07:13:44;3.72;;;1.95;;
45540;SDS011;31265;49.680;8.608;2022-09-14T07:16:13;3.78;;;1.80;;
45540;SDS011;31265;49.680;8.608;2022-09-14T07:18:41;4.20;;;2.67;;
45540;SDS011;31265;49.680;8.608;2022-09-14T07:21:10;3.05;;;2.03;;
45540;SDS011;31265;49.680;8.608;2022-09-14T07:26:09;4.40;;;2.55;;
45540;SDS011;31265;49.680;8.608;2022-09-14T07:28:38;5.25;;;2.65;;
45540;SDS011;31265;49.680;8.608;2022-09-14T07:31:14;6.68;;;3.33;;
45540;SDS011;31265;49.680;8.608;2022-09-14T07:33:44;5.47;;;2.97;;
45540;SDS011;31265;49.680;8.608;2022-09-14T07:36:12;4.65;;;2.95;;
45540;SDS011;31265;49.680;8.608;2022-09-14T07:38:41;6.45;;;3.10;;
45540;SDS011;31265;49.680;8.608;2022-09-14T07:41:19;7.70;;;2.97;;
45540;SDS011;31265;49.680;8.608;2022-09-14T07:43:48;6.32;;;2.90;;
45540;SDS011;31265;49.680;8.608;2022-09-14T07:46:18;6.10;;;3.17;;
45540;SDS011;31265;49.680;8.608;2022-09-14T07:48:46;4.60;;;3.08;;
45540;SDS011;31265;49.680;8.608;2022-09-14T07:51:15;5.20;;;2.75;;
45540;SDS011;31265;49.680;8.608;2022-09-14T07:53:43;5.15;;;2.97;;
45540;SDS011;31265;49.680;8.608;2022-09-14T07:56:12;5.65;;;3.22;;
45540;SDS011;31265;49.680;8.608;2022-09-14T07:58:42;5.05;;;2.33;;
45540;SDS011;31265;49.680;8.608;2022-09-14T08:01:11;6.28;;;2.53;;
45540;SDS011;31265;49.680;8.608;2022-09-14T08:03:45;5.50;;;2.58;;
45540;SDS011;31265;49.680;8.608;2022-09-14T08:06:15;3.40;;;2.22;;
45540;SDS011;31265;49.680;8.608;2022-09-14T08:08:46;5.20;;;2.17;;
45540;SDS011;31265;49.680;8.608;2022-09-14T08:11:16;3.30;;;1.80;;
45540;SDS011;31265;49.680;8.608;2022-09-14T08:13:47;4.20;;;2.17;;
45540;SDS011;31265;49.680;8.608;2022-09-14T08:16:16;3.35;;;2.00;;
45540;SDS011;31265;49.680;8.608;2022-09-14T08:18:47;3.88;;;2.40;;
45540;SDS011;31265;49.680;8.608;2022-09-14T08:21:19;4.60;;;2.35;;
45540;SDS011;31265;49.680;8.608;2022-09-14T08:23:47;3.63;;;1.85;;
45540;SDS011;31265;49.680;8.608;2022-09-14T08:26:16;6.13;;;2.97;;
45540;SDS011;31265;49.680;8.608;2022-09-14T08:28:46;3.92;;;1.95;;
45540;SDS011;31265;49.680;8.608;2022-09-14T08:31:16;4.10;;;2.10;;
45540;SDS011;31265;49.680;8.608;2022-09-14T08:33:48;4.93;;;2.30;;
45540;SDS011;31265;49.680;8.608;2022-09-14T08:36:18;5.03;;;2.45;;
45540;SDS011;31265;49.680;8.608;2022-09-14T08:38:48;6.78;;;2.40;;
45540;SDS011;31265;49.680;8.608;2022-09-14T08:41:24;4.70;;;2.10;;
45540;SDS011;31265;49.680;8.608;2022-09-14T08:43:56;4.85;;;2.28;;
45540;SDS011;31265;49.680;8.608;2022-09-14T08:46:29;4.72;;;2.95;;
45540;SDS011;31265;49.680;8.608;2022-09-14T08:49:01;8.00;;;2.92;;
45540;SDS011;31265;49.680;8.608;2022-09-14T08:51:33;4.95;;;2.45;;
45540;SDS011;31265;49.680;8.608;2022-09-14T08:54:01;6.85;;;2.85;;
45540;SDS011;31265;49.680;8.608;2022-09-14T08:56:30;6.05;;;2.70;;
45540;SDS011;31265;49.680;8.608;2022-09-14T08:59:03;6.30;;;2.65;;
45540;SDS011;31265;49.680;8.608;2022-09-14T09:01:44;7.38;;;3.30;;
45540;SDS011;31265;49.680;8.608;2022-09-14T09:04:30;6.90;;;3.42;;
45540;SDS011;31265;49.680;8.608;2022-09-14T09:07:07;6.32;;;3.38;;
45540;SDS011;31265;49.680;8.608;2022-09-14T09:09:41;11.63;;;4.47;;
45540;SDS011;31265;49.680;8.608;2022-09-14T09:12:12;6.28;;;3.75;;
45540;SDS011;31265;49.680;8.608;2022-09-14T09:14:45;6.68;;;3.85;;
45540;SDS011;31265;49.680;8.608;2022-09-14T09:17:18;8.27;;;4.03;;
45540;SDS011;31265;49.680;8.608;2022-09-14T09:19:59;6.05;;;3.72;;
45540;SDS011;31265;49.680;8.608;2022-09-14T09:22:33;7.05;;;3.58;;
45540;SDS011;31265;49.680;8.608;2022-09-14T09:25:08;5.25;;;3.58;;
45540;SDS011;31265;49.680;8.608;2022-09-14T09:27:42;6.80;;;3.88;;
45540;SDS011;31265;49.680;8.608;2022-09-14T09:30:11;9.77;;;4.80;;
45540;SDS011;31265;49.680;8.608;2022-09-14T09:32:41;7.68;;;3.38;;
45540;SDS011;31265;49.680;8.608;2022-09-14T09:35:40;7.45;;;3.95;;
45540;SDS011;31265;49.680;8.608;2022-09-14T09:38:15;7.28;;;3.72;;
45540;SDS011;31265;49.680;8.608;2022-09-14T09:40:45;7.32;;;3.90;;
45540;SDS011;31265;49.680;8.608;2022-09-14T09:43:17;6.13;;;3.60;;
45540;SDS011;31265;49.680;8.608;2022-09-14T09:46:07;5.93;;;2.90;;
45540;SDS011;31265;49.680;8.608;2022-09-14T09:48:38;7.05;;;3.97;;
45540;SDS011;31265;49.680;8.608;2022-09-14T09:51:10;5.35;;;3.35;;
45540;SDS011;31265;49.680;8.608;2022-09-14T09:53:45;6.65;;;3.63;;
45540;SDS011;31265;49.680;8.608;2022-09-14T09:56:16;5.57;;;3.70;;
45540;SDS011;31265;49.680;8.608;2022-09-14T09:58:46;5.78;;;3.30;;
45540;SDS011;31265;49.680;8.608;2022-09-14T10:01:18;4.90;;;3.15;;
45540;SDS011;31265;49.680;8.608;2022-09-14T10:03:59;5.38;;;3.38;;
45540;SDS011;31265;49.680;8.608;2022-09-14T10:06:39;5.82;;;3.50;;
45540;SDS011;31265;49.680;8.608;2022-09-14T10:09:12;5.93;;;3.50;;
45540;SDS011;31265;49.680;8.608;2022-09-14T10:11:42;5.72;;;2.95;;
45540;SDS011;31265;49.680;8.608;2022-09-14T10:14:20;4.85;;;3.17;;
45540;SDS011;31265;49.680;8.608;2022-09-14T10:16:52;6.95;;;3.28;;
45540;SDS011;31265;49.680;8.608;2022-09-14T10:19:30;6.45;;;3.10;;
45540;SDS011;31265;49.680;8.608;2022-09-14T10:22:02;4.45;;;2.28;;
45540;SDS011;31265;49.680;8.608;2022-09-14T10:24:50;6.00;;;3.03;;
45540;SDS011;31265;49.680;8.608;2022-09-14T10:27:35;9.03;;;3.33;;
45540;SDS011;31265;49.680;8.608;2022-09-14T10:30:09;9.00;;;2.97;;
45540;SDS011;31265;49.680;8.608;2022-09-14T10:32:41;6.15;;;2.95;;
45540;SDS011;31265;49.680;8.608;2022-09-14T10:35:12;5.55;;;2.95;;
45540;SDS011;31265;49.680;8.608;2022-09-14T10:37:47;5.25;;;2.97;;
45540;SDS011;31265;49.680;8.608;2022-09-14T10:40:24;4.85;;;2.95;;
45540;SDS011;31265;49.680;8.608;2022-09-14T10:43:02;4.90;;;2.88;;
45540;SDS011;31265;49.680;8.608;2022-09-14T10:45:38;6.95;;;3.70;;
45540;SDS011;31265;49.680;8.608;2022-09-14T10:51:05;7.28;;;3.28;;
45540;SDS011;31265;49.680;8.608;2022-09-14T10:53:52;5.10;;;3.15;;
45540;SDS011;31265;49.680;8.608;2022-09-14T10:56:26;6.07;;;3.45;;
45540;SDS011;31265;49.680;8.608;2022-09-14T10:59:06;6.78;;;3.85;;
45540;SDS011;31265;49.680;8.608;2022-09-14T11:01:47;6.00;;;3.50;;
45540;SDS011;31265;49.680;8.608;2022-09-14T11:04:36;6.18;;;3.83;;
45540;SDS011;31265;49.680;8.608;2022-09-14T11:07:17;7.50;;;4.38;;
45540;SDS011;31265;49.680;8.608;2022-09-14T11:09:54;5.53;;;3.40;;
45540;SDS011;31265;49.680;8.608;2022-09-14T11:12:29;6.60;;;4.30;;
45540;SDS011;31265;49.680;8.608;2022-09-14T11:15:06;9.32;;;5.10;;
45540;SDS011;31265;49.680;8.608;2022-09-14T11:17:49;8.63;;;4.88;;
45540;SDS011;31265;49.680;8.608;2022-09-14T11:20:29;8.63;;;4.38;;
45540;SDS011;31265;49.680;8.608;2022-09-14T11:23:14;8.32;;;4.90;;
45540;SDS011;31265;49.680;8.608;2022-09-14T11:25:53;5.68;;;3.35;;
45540;SDS011;31265;49.680;8.608;2022-09-14T11:28:27;8.70;;;4.15;;
45540;SDS011;31265;49.680;8.608;2022-09-14T11:31:00;6.63;;;4.05;;
45540;SDS011;31265;49.680;8.608;2022-09-14T11:33:33;4.63;;;3.72;;
45540;SDS011;31265;49.680;8.608;2022-09-14T11:36:06;11.70;;;4.70;;
45540;SDS011;31265;49.680;8.608;2022-09-14T11:38:43;4.43;;;2.65;;
45540;SDS011;31265;49.680;8.608;2022-09-14T11:41:18;5.40;;;3.10;;
45540;SDS011;31265;49.680;8.608;2022-09-14T11:43:51;6.55;;;3.78;;
45540;SDS011;31265;49.680;8.608;2022-09-14T11:46:25;5.80;;;3.55;;
45540;SDS011;31265;49.680;8.608;2022-09-14T11:48:59;5.00;;;2.58;;
45540;SDS011;31265;49.680;8.608;2022-09-14T11:51:35;5.88;;;2.60;;
45540;SDS011;31265;49.680;8.608;2022-09-14T11:54:09;6.13;;;3.60;;
45540;SDS011;31265;49.680;8.608;2022-09-14T11:56:44;6.38;;;3.30;;
45540;SDS011;31265;49.680;8.608;2022-09-14T11:59:32;5.30;;;2.83;;
45540;SDS011;31265;49.680;8.608;2022-09-14T12:05:23;5.90;;;3.17;;
45540;SDS011;31265;49.680;8.608;2022-09-14T12:07:56;4.30;;;2.45;;
45540;SDS011;31265;49.680;8.608;2022-09-14T12:10:26;5.45;;;2.75;;
45540;SDS011;31265;49.680;8.608;2022-09-14T12:12:56;7.03;;;2.72;;
45540;SDS011;31265;49.680;8.608;2022-09-14T12:15:44;6.72;;;2.97;;
45540;SDS011;31265;49.680;8.608;2022-09-14T12:18:14;9.05;;;2.92;;
45540;SDS011;31265;49.680;8.608;2022-09-14T12:20:48;4.70;;;2.80;;
45540;SDS011;31265;49.680;8.608;2022-09-14T12:23:28;5.25;;;2.85;;
45540;SDS011;31265;49.680;8.608;2022-09-14T12:26:09;5.15;;;2.63;;
45540;SDS011;31265;49.680;8.608;2022-09-14T12:28:55;6.38;;;2.97;;
45540;SDS011;31265;49.680;8.608;2022-09-14T12:31:29;5.78;;;3.22;;
45540;SDS011;31265;49.680;8.608;2022-09-14T12:34:12;6.35;;;3.15;;
45540;SDS011;31265;49.680;8.608;2022-09-14T12:36:56;5.07;;;3.13;;
45540;SDS011;31265;49.680;8.608;2022-09-14T12:39:34;9.27;;;3.30;;
45540;SDS011;31265;49.680;8.608;2022-09-14T12:42:04;8.30;;;3.95;;
45540;SDS011;31265;49.680;8.608;2022-09-14T12:44:52;7.37;;;3.43;;
45540;SDS011;31265;49.680;8.608;2022-09-14T12:47:37;5.88;;;3.67;;
45540;SDS011;31265;49.680;8.608;2022-09-14T12:50:17;6.40;;;3.35;;
45540;SDS011;31265;49.680;8.608;2022-09-14T12:52:53;7.47;;;3.65;;
45540;SDS011;31265;49.680;8.608;2022-09-14T12:55:41;5.00;;;3.05;;
45540;SDS011;31265;49.680;8.608;2022-09-14T12:58:26;6.22;;;3.05;;
45540;SDS011;31265;49.680;8.608;2022-09-14T13:01:12;6.25;;;2.92;;
45540;SDS011;31265;49.680;8.608;2022-09-14T13:03:49;5.10;;;2.80;;
45540;SDS011;31265;49.680;8.608;2022-09-14T13:06:19;5.35;;;2.67;;
45540;SDS011;31265;49.680;8.608;2022-09-14T13:08:53;8.52;;;3.63;;
45540;SDS011;31265;49.680;8.608;2022-09-14T13:11:25;4.22;;;2.38;;
45540;SDS011;31265;49.680;8.608;2022-09-14T13:13:58;3.65;;;2.35;;
45540;SDS011;31265;49.680;8.608;2022-09-14T13:16:36;6.13;;;3.28;;
45540;SDS011;31265;49.680;8.608;2022-09-14T13:19:17;5.55;;;3.00;;
45540;SDS011;31265;49.680;8.608;2022-09-14T13:21:47;3.60;;;1.95;;
45540;SDS011;31265;49.680;8.608;2022-09-14T13:24:22;5.90;;;3.15;;
45540;SDS011;31265;49.680;8.608;2022-09-14T13:26:53;3.80;;;2.28;;
45540;SDS011;31265;49.680;8.608;2022-09-14T13:29:24;5.50;;;2.70;;
45540;SDS011;31265;49.680;8.608;2022-09-14T13:31:55;5.50;;;3.05;;
45540;SDS011;31265;49.680;8.608;2022-09-14T13:34:30;6.65;;;2.50;;
45540;SDS011;31265;49.680;8.608;2022-09-14T13:37:02;5.47;;;2.70;;
45540;SDS011;31265;49.680;8.608;2022-09-14T13:39:32;5.45;;;2.17;;
45540;SDS011;31265;49.680;8.608;2022-09-14T13:42:02;8.38;;;2.92;;
45540;SDS011;31265;49.680;8.608;2022-09-14T13:44:32;5.32;;;2.75;;
45540;SDS011;31265;49.680;8.608;2022-09-14T13:47:03;6.35;;;2.50;;
45540;SDS011;31265;49.680;8.608;2022-09-14T13:49:33;3.92;;;2.33;;
45540;SDS011;31265;49.680;8.608;2022-09-14T13:55:24;4.13;;;2.65;;
45540;SDS011;31265;49.680;8.608;2022-09-14T13:58:03;4.15;;;2.50;;
45540;SDS011;31265;49.680;8.608;2022-09-14T14:00:32;9.80;;;2.47;;
45540;SDS011;31265;49.680;8.608;2022-09-14T14:03:21;5.05;;;2.10;;
45540;SDS011;31265;49.680;8.608;2022-09-14T14:05:53;4.13;;;2.60;;
45540;SDS011;31265;49.680;8.608;2022-09-14T14:08:24;3.40;;;2.42;;
45540;SDS011;31265;49.680;8.608;2022-09-14T14:10:55;3.60;;;2.17;;
45540;SDS011;31265;49.680;8.608;2022-09-14T14:13:24;6.47;;;2.72;;
45540;SDS011;31265;49.680;8.608;2022-09-14T14:15:52;4.77;;;2.50;;
45540;SDS011;31265;49.680;8.608;2022-09-14T14:18:37;6.70;;;3.13;;
45540;SDS011;31265;49.680;8.608;2022-09-14T14:21:12;4.25;;;2.40;;
45540;SDS011;31265;49.680;8.608;2022-09-14T14:23:42;6.82;;;3.00;;
45540;SDS011;31265;49.680;8.608;2022-09-14T14:26:30;5.53;;;2.92;;
45540;SDS011;31265;49.680;8.608;2022-09-14T14:29:05;5.10;;;2.53;;
45540;SDS011;31265;49.680;8.608;2022-09-14T14:31:34;5.47;;;2.35;;
45540;SDS011;31265;49.680;8.608;2022-09-14T14:34:09;4.03;;;1.65;;
45540;SDS011;31265;49.680;8.608;2022-09-14T14:36:42;8.23;;;1.63;;
45540;SDS011;31265;49.680;8.608;2022-09-14T14:39:12;1.92;;;1.00;;
45540;SDS011;31265;49.680;8.608;2022-09-14T14:41:40;3.83;;;0.60;;
45540;SDS011;31265;49.680;8.608;2022-09-14T14:44:09;3.67;;;1.08;;
45540;SDS011;31265;49.680;8.608;2022-09-14T14:46:42;3.08;;;0.85;;
45540;SDS011;31265;49.680;8.608;2022-09-14T14:49:13;2.17;;;1.03;;
45540;SDS011;31265;49.680;8.608;2022-09-14T14:51:43;1.88;;;1.00;;
45540;SDS011;31265;49.680;8.608;2022-09-14T14:54:11;2.75;;;0.60;;
45540;SDS011;31265;49.680;8.608;2022-09-14T14:56:41;1.25;;;0.50;;
45540;SDS011;31265;49.680;8.608;2022-09-14T14:59:22;1.23;;;0.77;;
45540;SDS011;31265;49.680;8.608;2022-09-14T15:01:53;1.35;;;0.50;;
45540;SDS011;31265;49.680;8.608;2022-09-14T15:04:24;4.40;;;0.63;;
45540;SDS011;31265;49.680;8.608;2022-09-14T15:06:52;0.98;;;0.60;;
45540;SDS011;31265;49.680;8.608;2022-09-14T15:09:21;1.23;;;0.70;;
45540;SDS011;31265;49.680;8.608;2022-09-14T15:11:53;1.63;;;0.70;;
45540;SDS011;31265;49.680;8.608;2022-09-14T15:14:22;1.23;;;0.60;;
45540;SDS011;31265;49.680;8.608;2022-09-14T15:16:53;2.70;;;0.70;;
45540;SDS011;31265;49.680;8.608;2022-09-14T15:19:27;1.40;;;0.65;;
45540;SDS011;31265;49.680;8.608;2022-09-14T15:21:55;2.08;;;0.50;;
45540;SDS011;31265;49.680;8.608;2022-09-14T15:24:30;4.30;;;0.90;;
45540;SDS011;31265;49.680;8.608;2022-09-14T15:26:59;0.85;;;0.40;;
45540;SDS011;31265;49.680;8.608;2022-09-14T15:29:27;4.55;;;1.08;;
45540;SDS011;31265;49.680;8.608;2022-09-14T15:31:55;3.13;;;1.05;;
45540;SDS011;31265;49.680;8.608;2022-09-14T15:34:24;2.30;;;0.93;;
45540;SDS011;31265;49.680;8.608;2022-09-14T15:36:53;0.73;;;0.43;;
45540;SDS011;31265;49.680;8.608;2022-09-14T15:39:23;1.63;;;0.80;;
45540;SDS011;31265;49.680;8.608;2022-09-14T15:41:53;0.90;;;0.40;;
45540;SDS011;31265;49.680;8.608;2022-09-14T15:44:21;1.58;;;0.60;;